Pyron, Texas
Current Conditions -  °F | °C
As of 2:15 PM on Saturday 20 Dec 2014 (Local Time) from KSWW Reporting Station
Overcast Overcast  
Wind Chill: 53°   Ceiling: 2100
Heat Index: 53°   Visibility: 10mi
Dew Point: 42°   Wind: 13mph
Humidity: 66%   Direction: 180°S
Pressure: 30.12"   Gusts: 16mph
Location:  32.3875°N, 100.536°W
Report Text: KSWW 202015Z AUTO 18011G14KT 10SM OVC021 12/06 A3012 RMK AO2 T01160055
Loading
Personal Weather Stations






























Interactive Weather Map New forecast layout! Learn more

10-Day Weather Forecast

Advertisements
Track Severe Weather on mobile